Terminal Aerodrome Forecast
Issued by NWS Louisville, KY

Home | Current Version | Previous Version | Text Only | Print | Product List | Glossary On
Versions: 1 2 3 4 5 6 7 8 9 10 11 12
000
FTUS43 KLMK 141720
TAFLEX
TAF
KLEX 141720Z 1418/1518 02007KT P6SM BKN035
     FM150400 VRB03KT P6SM BKN035
     FM151400 25010G16KT P6SM FEW060 SCT120=

USA.gov is the U.S. government's official web portal to all federal, state and local government web resources and services.